sensor_id;sensor_type;location;lat;lon;timestamp;temperature;humidity
55365;DHT22;41245;45.384;20.390;2022-08-01T00:00:25;538.20;128.00
55365;DHT22;41245;45.384;20.390;2022-08-01T00:02:51;538.20;128.00
55365;DHT22;41245;45.384;20.390;2022-08-01T00:05:17;538.20;128.00
55365;DHT22;41245;45.384;20.390;2022-08-01T00:07:43;538.10;128.00
55365;DHT22;41245;45.384;20.390;2022-08-01T00:10:11;538.10;128.00
55365;DHT22;41245;45.384;20.390;2022-08-01T00:12:38;538.00;128.00
55365;DHT22;41245;45.384;20.390;2022-08-01T00:15:09;538.00;128.00
55365;DHT22;41245;45.384;20.390;2022-08-01T00:17:35;538.00;128.00
55365;DHT22;41245;45.384;20.390;2022-08-01T00:20:02;538.00;128.00
55365;DHT22;41245;45.384;20.390;2022-08-01T00:22:30;537.90;128.00
55365;DHT22;41245;45.384;20.390;2022-08-01T00:24:56;537.90;128.00
55365;DHT22;41245;45.384;20.390;2022-08-01T00:27:22;537.80;128.00
55365;DHT22;41245;45.384;20.390;2022-08-01T00:29:48;537.80;128.00
55365;DHT22;41245;45.384;20.390;2022-08-01T00:32:13;537.80;128.00
55365;DHT22;41245;45.384;20.390;2022-08-01T00:34:39;537.80;128.00
55365;DHT22;41245;45.384;20.390;2022-08-01T00:37:05;537.80;128.00
55365;DHT22;41245;45.384;20.390;2022-08-01T00:39:31;537.60;128.00
55365;DHT22;41245;45.384;20.390;2022-08-01T00:42:05;537.80;128.00
55365;DHT22;41245;45.384;20.390;2022-08-01T00:44:31;537.80;128.00
55365;DHT22;41245;45.384;20.390;2022-08-01T00:46:56;537.70;128.00
55365;DHT22;41245;45.384;20.390;2022-08-01T00:49:22;537.70;128.00
55365;DHT22;41245;45.384;20.390;2022-08-01T00:51:48;537.70;128.00
55365;DHT22;41245;45.384;20.390;2022-08-01T00:54:15;537.60;128.00
55365;DHT22;41245;45.384;20.390;2022-08-01T00:56:41;537.60;128.00
55365;DHT22;41245;45.384;20.390;2022-08-01T00:59:07;537.60;128.00
55365;DHT22;41245;45.384;20.390;2022-08-01T01:01:33;537.60;128.00
55365;DHT22;41245;45.384;20.390;2022-08-01T01:04:01;512.90;128.00
55365;DHT22;41245;45.384;20.390;2022-08-01T01:12:49;512.90;128.00
55365;DHT22;41245;45.384;20.390;2022-08-01T01:17:45;512.90;128.00
55365;DHT22;41245;45.384;20.390;2022-08-01T01:20:13;512.80;128.00
55365;DHT22;41245;45.384;20.390;2022-08-01T01:22:47;512.80;128.00
55365;DHT22;41245;45.384;20.390;2022-08-01T01:25:32;512.80;128.00
55365;DHT22;41245;45.384;20.390;2022-08-01T01:28:20;512.70;128.00
55365;DHT22;41245;45.384;20.390;2022-08-01T01:30:52;512.70;128.00
55365;DHT22;41245;45.384;20.390;2022-08-01T01:33:21;512.60;128.00
55365;DHT22;41245;45.384;20.390;2022-08-01T01:35:51;512.60;128.00
55365;DHT22;41245;45.384;20.390;2022-08-01T01:38:26;512.60;128.00
55365;DHT22;41245;45.384;20.390;2022-08-01T01:40:55;512.50;128.00
55365;DHT22;41245;45.384;20.390;2022-08-01T01:43:23;512.50;128.00
55365;DHT22;41245;45.384;20.390;2022-08-01T01:45:51;512.40;128.00
55365;DHT22;41245;45.384;20.390;2022-08-01T01:48:19;512.40;128.00
55365;DHT22;41245;45.384;20.390;2022-08-01T01:50:47;512.40;128.00
55365;DHT22;41245;45.384;20.390;2022-08-01T01:53:16;512.40;128.00
55365;DHT22;41245;45.384;20.390;2022-08-01T01:55:43;512.40;128.00
55365;DHT22;41245;45.384;20.390;2022-08-01T01:58:12;512.50;128.00
55365;DHT22;41245;45.384;20.390;2022-08-01T02:00:40;512.40;128.00
55365;DHT22;41245;45.384;20.390;2022-08-01T02:03:09;512.40;128.00
55365;DHT22;41245;45.384;20.390;2022-08-01T02:05:37;512.40;128.00
55365;DHT22;41245;45.384;20.390;2022-08-01T02:08:04;512.40;128.00
55365;DHT22;41245;45.384;20.390;2022-08-01T02:10:31;512.40;128.00
55365;DHT22;41245;45.384;20.390;2022-08-01T02:12:59;512.40;128.00
55365;DHT22;41245;45.384;20.390;2022-08-01T02:15:28;512.40;128.00
55365;DHT22;41245;45.384;20.390;2022-08-01T02:17:56;512.40;128.00
55365;DHT22;41245;45.384;20.390;2022-08-01T02:20:24;512.40;128.00
55365;DHT22;41245;45.384;20.390;2022-08-01T02:22:57;512.40;128.00
55365;DHT22;41245;45.384;20.390;2022-08-01T02:25:31;512.40;128.00
55365;DHT22;41245;45.384;20.390;2022-08-01T02:28:09;512.30;128.00
55365;DHT22;41245;45.384;20.390;2022-08-01T02:30:38;512.30;128.00
55365;DHT22;41245;45.384;20.390;2022-08-01T02:33:29;512.30;128.00
55365;DHT22;41245;45.384;20.390;2022-08-01T02:35:57;512.20;128.00
55365;DHT22;41245;45.384;20.390;2022-08-01T02:38:25;512.20;128.00
55365;DHT22;41245;45.384;20.390;2022-08-01T02:40:54;512.10;128.00
55365;DHT22;41245;45.384;20.390;2022-08-01T02:43:24;512.10;128.00
55365;DHT22;41245;45.384;20.390;2022-08-01T02:45:54;512.10;128.00
55365;DHT22;41245;45.384;20.390;2022-08-01T02:48:22;512.10;128.00
55365;DHT22;41245;45.384;20.390;2022-08-01T02:50:51;512.00;128.00
55365;DHT22;41245;45.384;20.390;2022-08-01T02:53:20;512.00;128.00
55365;DHT22;41245;45.384;20.390;2022-08-01T02:55:47;512.00;128.00
55365;DHT22;41245;45.384;20.390;2022-08-01T02:58:18;512.00;128.00
55365;DHT22;41245;45.384;20.390;2022-08-01T03:00:45;512.00;128.00
55365;DHT22;41245;45.384;20.390;2022-08-01T03:03:13;512.00;128.00
55365;DHT22;41245;45.384;20.390;2022-08-01T03:05:40;512.00;128.00
55365;DHT22;41245;45.384;20.390;2022-08-01T03:08:08;512.00;128.00
55365;DHT22;41245;45.384;20.390;2022-08-01T03:10:38;487.30;128.00
55365;DHT22;41245;45.384;20.390;2022-08-01T03:13:06;487.30;128.00
55365;DHT22;41245;45.384;20.390;2022-08-01T03:15:35;487.20;128.00
55365;DHT22;41245;45.384;20.390;2022-08-01T03:18:02;487.20;128.00
55365;DHT22;41245;45.384;20.390;2022-08-01T03:20:30;487.20;128.00
55365;DHT22;41245;45.384;20.390;2022-08-01T03:23:01;487.20;128.00
55365;DHT22;41245;45.384;20.390;2022-08-01T03:25:28;487.20;128.00
55365;DHT22;41245;45.384;20.390;2022-08-01T03:27:58;487.20;128.00
55365;DHT22;41245;45.384;20.390;2022-08-01T03:30:25;487.20;128.00
55365;DHT22;41245;45.384;20.390;2022-08-01T03:32:52;487.20;128.00
55365;DHT22;41245;45.384;20.390;2022-08-01T03:35:18;487.20;128.00
55365;DHT22;41245;45.384;20.390;2022-08-01T03:37:46;487.20;128.00
55365;DHT22;41245;45.384;20.390;2022-08-01T03:40:22;487.20;128.00
55365;DHT22;41245;45.384;20.390;2022-08-01T03:42:52;487.20;128.00
55365;DHT22;41245;45.384;20.390;2022-08-01T03:45:22;487.30;128.00
55365;DHT22;41245;45.384;20.390;2022-08-01T03:47:57;512.00;128.00
55365;DHT22;41245;45.384;20.390;2022-08-01T03:50:24;512.00;128.00
55365;DHT22;41245;45.384;20.390;2022-08-01T03:52:51;512.00;128.00
55365;DHT22;41245;45.384;20.390;2022-08-01T03:55:20;512.00;128.00
55365;DHT22;41245;45.384;20.390;2022-08-01T03:57:48;512.20;128.00
55365;DHT22;41245;45.384;20.390;2022-08-01T04:00:14;512.40;128.00
55365;DHT22;41245;45.384;20.390;2022-08-01T04:02:47;537.60;128.00
55365;DHT22;41245;45.384;20.390;2022-08-01T04:05:14;563.30;128.00
55365;DHT22;41245;45.384;20.390;2022-08-01T04:07:45;589.20;128.00
55365;DHT22;41245;45.384;20.390;2022-08-01T04:10:12;614.90;128.00
55365;DHT22;41245;45.384;20.390;2022-08-01T04:12:38;640.40;128.00
55365;DHT22;41245;45.384;20.390;2022-08-01T04:15:05;665.90;153.60
55365;DHT22;41245;45.384;20.390;2022-08-01T04:17:31;691.20;153.60
55365;DHT22;41245;45.384;20.390;2022-08-01T04:19:57;691.80;153.60
55365;DHT22;41245;45.384;20.390;2022-08-01T04:22:22;716.80;179.20
55365;DHT22;41245;45.384;20.390;2022-08-01T04:24:52;717.30;179.20
55365;DHT22;41245;45.384;20.390;2022-08-01T04:27:32;742.90;204.80
55365;DHT22;41245;45.384;20.390;2022-08-01T04:30:01;768.10;204.80
55365;DHT22;41245;45.384;20.390;2022-08-01T04:32:31;768.30;204.80
55365;DHT22;41245;45.384;20.390;2022-08-01T04:34:59;768.30;204.80
55365;DHT22;41245;45.384;20.390;2022-08-01T04:37:26;768.70;204.80
55365;DHT22;41245;45.384;20.390;2022-08-01T04:39:55;768.90;204.80
55365;DHT22;41245;45.384;20.390;2022-08-01T04:42:21;793.90;230.40
55365;DHT22;41245;45.384;20.390;2022-08-01T04:44:47;793.90;230.40
55365;DHT22;41245;45.384;20.390;2022-08-01T04:47:13;794.50;230.40
55365;DHT22;41245;45.384;20.390;2022-08-01T04:49:40;819.20;230.40
55365;DHT22;41245;45.384;20.390;2022-08-01T04:52:07;819.30;230.40
55365;DHT22;41245;45.384;20.390;2022-08-01T04:54:35;819.40;256.00
55365;DHT22;41245;45.384;20.390;2022-08-01T04:57:04;819.30;230.40
55365;DHT22;41245;45.384;20.390;2022-08-01T04:59:36;794.30;230.40
55365;DHT22;41245;45.384;20.390;2022-08-01T05:02:14;794.10;230.40
55365;DHT22;41245;45.384;20.390;2022-08-01T05:04:41;793.90;230.40
55365;DHT22;41245;45.384;20.390;2022-08-01T05:07:08;794.10;230.40
55365;DHT22;41245;45.384;20.390;2022-08-01T05:09:34;794.00;230.40
55365;DHT22;41245;45.384;20.390;2022-08-01T05:12:01;794.20;230.40
55365;DHT22;41245;45.384;20.390;2022-08-01T05:14:28;819.20;230.40
55365;DHT22;41245;45.384;20.390;2022-08-01T05:16:57;819.20;230.40
55365;DHT22;41245;45.384;20.390;2022-08-01T05:19:24;819.40;230.40
55365;DHT22;41245;45.384;20.390;2022-08-01T05:21:49;819.40;230.40
55365;DHT22;41245;45.384;20.390;2022-08-01T05:24:15;819.60;230.40
55365;DHT22;41245;45.384;20.390;2022-08-01T05:26:41;819.50;230.40
55365;DHT22;41245;45.384;20.390;2022-08-01T05:29:06;819.50;230.40
55365;DHT22;41245;45.384;20.390;2022-08-01T05:31:33;820.00;230.40
55365;DHT22;41245;45.384;20.390;2022-08-01T05:34:03;845.10;256.00
55365;DHT22;41245;45.384;20.390;2022-08-01T05:36:29;845.30;256.00
55365;DHT22;41245;45.384;20.390;2022-08-01T05:38:55;845.70;358.40
55365;DHT22;41245;45.384;20.390;2022-08-01T05:41:20;845.70;384.00
55365;DHT22;41245;45.384;20.390;2022-08-01T05:43:46;845.40;384.00
55365;DHT22;41245;45.384;20.390;2022-08-01T05:46:12;845.50;281.60
55365;DHT22;41245;45.384;20.390;2022-08-01T05:48:38;845.70;332.80
55365;DHT22;41245;45.384;20.390;2022-08-01T05:51:03;870.90;384.00
55365;DHT22;41245;45.384;20.390;2022-08-01T05:53:29;871.30;409.60
55365;DHT22;41245;45.384;20.390;2022-08-01T05:55:55;896.90;460.80
55365;DHT22;41245;45.384;20.390;2022-08-01T06:05:39;1024.00;332.80
55365;DHT22;41245;45.384;20.390;2022-08-01T06:08:05;1024.40;332.80
55365;DHT22;41245;45.384;20.390;2022-08-01T06:10:31;1049.70;358.40
55365;DHT22;41245;45.384;20.390;2022-08-01T06:12:57;1050.10;358.40
55365;DHT22;41245;45.384;20.390;2022-08-01T06:15:23;1049.70;358.40
55365;DHT22;41245;45.384;20.390;2022-08-01T06:17:48;1024.10;332.80
55365;DHT22;41245;45.384;20.390;2022-08-01T06:20:14;973.10;307.20
55365;DHT22;41245;45.384;20.390;2022-08-01T06:22:40;896.60;256.00
55365;DHT22;41245;45.384;20.390;2022-08-01T06:25:07;845.50;742.40
55365;DHT22;41245;45.384;20.390;2022-08-01T06:27:35;819.70;665.60
55365;DHT22;41245;45.384;20.390;2022-08-01T06:30:02;768.50;409.60
55365;DHT22;41245;45.384;20.390;2022-08-01T06:32:28;768.10;384.00
55365;DHT22;41245;45.384;20.390;2022-08-01T06:34:54;742.60;409.60
55365;DHT22;41245;45.384;20.390;2022-08-01T06:37:21;717.50;204.80
55365;DHT22;41245;45.384;20.390;2022-08-01T06:39:46;717.00;179.20
55365;DHT22;41245;45.384;20.390;2022-08-01T06:42:12;716.80;179.20
55365;DHT22;41245;45.384;20.390;2022-08-01T06:44:40;692.00;153.60
55365;DHT22;41245;45.384;20.390;2022-08-01T06:47:05;691.80;153.60
55365;DHT22;41245;45.384;20.390;2022-08-01T06:49:31;691.40;179.20
55365;DHT22;41245;45.384;20.390;2022-08-01T06:51:57;666.40;153.60
55365;DHT22;41245;45.384;20.390;2022-08-01T06:54:22;666.40;153.60
55365;DHT22;41245;45.384;20.390;2022-08-01T06:56:48;666.40;153.60
55365;DHT22;41245;45.384;20.390;2022-08-01T06:59:14;666.30;153.60
55365;DHT22;41245;45.384;20.390;2022-08-01T07:01:40;666.20;153.60
55365;DHT22;41245;45.384;20.390;2022-08-01T07:04:06;665.90;153.60
55365;DHT22;41245;45.384;20.390;2022-08-01T07:06:32;665.80;153.60
55365;DHT22;41245;45.384;20.390;2022-08-01T07:08:58;665.80;153.60
55365;DHT22;41245;45.384;20.390;2022-08-01T07:11:24;666.00;153.60
55365;DHT22;41245;45.384;20.390;2022-08-01T07:13:49;665.70;153.60
55365;DHT22;41245;45.384;20.390;2022-08-01T07:16:17;640.90;128.00
55365;DHT22;41245;45.384;20.390;2022-08-01T07:18:44;665.70;153.60
55365;DHT22;41245;45.384;20.390;2022-08-01T07:21:09;665.80;153.60
55365;DHT22;41245;45.384;20.390;2022-08-01T07:23:35;665.90;153.60
55365;DHT22;41245;45.384;20.390;2022-08-01T07:26:02;666.20;153.60
55365;DHT22;41245;45.384;20.390;2022-08-01T07:28:28;666.30;153.60
55365;DHT22;41245;45.384;20.390;2022-08-01T07:30:54;666.40;153.60
55365;DHT22;41245;45.384;20.390;2022-08-01T07:33:20;666.10;153.60
55365;DHT22;41245;45.384;20.390;2022-08-01T07:35:46;666.40;153.60
55365;DHT22;41245;45.384;20.390;2022-08-01T07:38:11;691.20;153.60
55365;DHT22;41245;45.384;20.390;2022-08-01T07:40:38;691.30;153.60
55365;DHT22;41245;45.384;20.390;2022-08-01T07:43:04;666.50;153.60
55365;DHT22;41245;45.384;20.390;2022-08-01T07:45:30;691.20;153.60
55365;DHT22;41245;45.384;20.390;2022-08-01T07:47:56;691.30;153.60
55365;DHT22;41245;45.384;20.390;2022-08-01T07:50:21;691.30;153.60
55365;DHT22;41245;45.384;20.390;2022-08-01T07:52:47;691.30;153.60
55365;DHT22;41245;45.384;20.390;2022-08-01T07:55:13;691.30;153.60
55365;DHT22;41245;45.384;20.390;2022-08-01T07:57:39;691.50;153.60
55365;DHT22;41245;45.384;20.390;2022-08-01T08:00:08;691.60;153.60
55365;DHT22;41245;45.384;20.390;2022-08-01T08:02:34;691.60;153.60
55365;DHT22;41245;45.384;20.390;2022-08-01T08:05:00;691.60;153.60
55365;DHT22;41245;45.384;20.390;2022-08-01T08:07:26;691.70;153.60
55365;DHT22;41245;45.384;20.390;2022-08-01T08:09:51;691.70;153.60
55365;DHT22;41245;45.384;20.390;2022-08-01T08:12:17;691.80;153.60
55365;DHT22;41245;45.384;20.390;2022-08-01T08:14:43;692.00;153.60
55365;DHT22;41245;45.384;20.390;2022-08-01T08:17:08;692.10;153.60
55365;DHT22;41245;45.384;20.390;2022-08-01T08:19:34;692.10;153.60
55365;DHT22;41245;45.384;20.390;2022-08-01T08:22:02;692.10;153.60
55365;DHT22;41245;45.384;20.390;2022-08-01T08:24:28;692.10;153.60
55365;DHT22;41245;45.384;20.390;2022-08-01T08:26:55;692.10;153.60
55365;DHT22;41245;45.384;20.390;2022-08-01T08:29:22;716.90;179.20
55365;DHT22;41245;45.384;20.390;2022-08-01T08:31:49;716.90;179.20
55365;DHT22;41245;45.384;20.390;2022-08-01T08:34:15;716.90;179.20
55365;DHT22;41245;45.384;20.390;2022-08-01T08:36:40;716.80;179.20
55365;DHT22;41245;45.384;20.390;2022-08-01T08:39:06;716.90;179.20
55365;DHT22;41245;45.384;20.390;2022-08-01T08:41:33;716.90;179.20
55365;DHT22;41245;45.384;20.390;2022-08-01T08:44:01;717.10;179.20
55365;DHT22;41245;45.384;20.390;2022-08-01T08:46:27;716.80;179.20
55365;DHT22;41245;45.384;20.390;2022-08-01T08:48:55;716.80;179.20
55365;DHT22;41245;45.384;20.390;2022-08-01T08:51:24;717.10;179.20
55365;DHT22;41245;45.384;20.390;2022-08-01T08:53:51;717.20;179.20
55365;DHT22;41245;45.384;20.390;2022-08-01T08:56:20;717.40;179.20
55365;DHT22;41245;45.384;20.390;2022-08-01T08:58:46;717.60;179.20
55365;DHT22;41245;45.384;20.390;2022-08-01T09:01:13;717.60;179.20
55365;DHT22;41245;45.384;20.390;2022-08-01T09:03:40;742.40;204.80
55365;DHT22;41245;45.384;20.390;2022-08-01T09:06:05;717.50;179.20
55365;DHT22;41245;45.384;20.390;2022-08-01T09:08:33;717.60;332.80
55365;DHT22;41245;45.384;20.390;2022-08-01T09:10:59;717.60;307.20
55365;DHT22;41245;45.384;20.390;2022-08-01T09:13:24;717.60;307.20
55365;DHT22;41245;45.384;20.390;2022-08-01T09:15:52;717.60;281.60
55365;DHT22;41245;45.384;20.390;2022-08-01T09:18:25;742.40;204.80
55365;DHT22;41245;45.384;20.390;2022-08-01T09:23:55;742.40;204.80
55365;DHT22;41245;45.384;20.390;2022-08-01T09:26:30;742.60;204.80
55365;DHT22;41245;45.384;20.390;2022-08-01T09:28:57;742.80;204.80
55365;DHT22;41245;45.384;20.390;2022-08-01T09:31:26;742.80;204.80
55365;DHT22;41245;45.384;20.390;2022-08-01T09:36:43;742.70;204.80
55365;DHT22;41245;45.384;20.390;2022-08-01T09:39:13;742.70;204.80
55365;DHT22;41245;45.384;20.390;2022-08-01T09:41:40;742.70;204.80
55365;DHT22;41245;45.384;20.390;2022-08-01T09:44:06;742.70;204.80
55365;DHT22;41245;45.384;20.390;2022-08-01T09:46:32;742.80;204.80
55365;DHT22;41245;45.384;20.390;2022-08-01T09:49:04;742.90;204.80
55365;DHT22;41245;45.384;20.390;2022-08-01T09:51:30;742.90;204.80
55365;DHT22;41245;45.384;20.390;2022-08-01T09:53:57;742.80;204.80
55365;DHT22;41245;45.384;20.390;2022-08-01T09:56:24;742.80;204.80
55365;DHT22;41245;45.384;20.390;2022-08-01T10:01:23;743.20;204.80
55365;DHT22;41245;45.384;20.390;2022-08-01T10:04:12;743.20;204.80
55365;DHT22;41245;45.384;20.390;2022-08-01T10:06:39;743.20;204.80
55365;DHT22;41245;45.384;20.390;2022-08-01T10:09:05;743.30;204.80
55365;DHT22;41245;45.384;20.390;2022-08-01T10:11:31;768.20;307.20
55365;DHT22;41245;45.384;20.390;2022-08-01T10:13:59;768.10;358.40
55365;DHT22;41245;45.384;20.390;2022-08-01T10:16:26;743.30;204.80
55365;DHT22;41245;45.384;20.390;2022-08-01T10:18:54;768.10;358.40
55365;DHT22;41245;45.384;20.390;2022-08-01T10:21:20;768.10;307.20
55365;DHT22;41245;45.384;20.390;2022-08-01T10:23:48;768.10;281.60
55365;DHT22;41245;45.384;20.390;2022-08-01T10:26:14;768.10;332.80
55365;DHT22;41245;45.384;20.390;2022-08-01T10:28:41;743.30;281.60
55365;DHT22;41245;45.384;20.390;2022-08-01T10:31:09;768.00;384.00
55365;DHT22;41245;45.384;20.390;2022-08-01T10:33:36;743.30;332.80
55365;DHT22;41245;45.384;20.390;2022-08-01T10:36:05;768.00;332.80
55365;DHT22;41245;45.384;20.390;2022-08-01T10:38:31;768.00;563.20
55365;DHT22;41245;45.384;20.390;2022-08-01T10:40:59;768.20;614.40
55365;DHT22;41245;45.384;20.390;2022-08-01T10:43:27;768.30;588.80
55365;DHT22;41245;45.384;20.390;2022-08-01T10:45:53;768.20;563.20
55365;DHT22;41245;45.384;20.390;2022-08-01T10:48:43;768.20;614.40
55365;DHT22;41245;45.384;20.390;2022-08-01T10:51:10;768.30;588.80
55365;DHT22;41245;45.384;20.390;2022-08-01T10:53:36;768.50;614.40
55365;DHT22;41245;45.384;20.390;2022-08-01T10:56:10;768.50;537.60
55365;DHT22;41245;45.384;20.390;2022-08-01T10:58:38;768.30;640.00
55365;DHT22;41245;45.384;20.390;2022-08-01T11:01:26;768.50;358.40
55365;DHT22;41245;45.384;20.390;2022-08-01T11:09:17;768.80;614.40
55365;DHT22;41245;45.384;20.390;2022-08-01T11:37:38;794.20;537.60
55365;DHT22;41245;45.384;20.390;2022-08-01T11:40:20;794.20;460.80
55365;DHT22;41245;45.384;20.390;2022-08-01T11:42:47;794.20;563.20
55365;DHT22;41245;45.384;20.390;2022-08-01T11:45:14;794.10;486.40
55365;DHT22;41245;45.384;20.390;2022-08-01T11:47:50;794.20;537.60
55365;DHT22;41245;45.384;20.390;2022-08-01T11:53:07;794.50;614.40
55365;DHT22;41245;45.384;20.390;2022-08-01T11:55:33;794.50;486.40
55365;DHT22;41245;45.384;20.390;2022-08-01T11:58:04;819.30;614.40
55365;DHT22;41245;45.384;20.390;2022-08-01T12:00:31;819.30;588.80
55365;DHT22;41245;45.384;20.390;2022-08-01T12:03:00;819.20;537.60
55365;DHT22;41245;45.384;20.390;2022-08-01T12:05:28;819.20;588.80
55365;DHT22;41245;45.384;20.390;2022-08-01T12:07:55;794.50;512.00
55365;DHT22;41245;45.384;20.390;2022-08-01T12:10:23;794.50;409.60
55365;DHT22;41245;45.384;20.390;2022-08-01T12:12:52;794.40;512.00
55365;DHT22;41245;45.384;20.390;2022-08-01T12:15:19;794.20;486.40
55365;DHT22;41245;45.384;20.390;2022-08-01T12:17:47;794.30;409.60
55365;DHT22;41245;45.384;20.390;2022-08-01T12:20:16;794.40;537.60
55365;DHT22;41245;45.384;20.390;2022-08-01T12:22:44;819.20;563.20
55365;DHT22;41245;45.384;20.390;2022-08-01T12:25:11;819.40;614.40
55365;DHT22;41245;45.384;20.390;2022-08-01T12:27:39;819.50;486.40
55365;DHT22;41245;45.384;20.390;2022-08-01T12:30:07;819.60;563.20
55365;DHT22;41245;45.384;20.390;2022-08-01T12:32:35;819.60;614.40
55365;DHT22;41245;45.384;20.390;2022-08-01T12:37:40;819.60;614.40
55365;DHT22;41245;45.384;20.390;2022-08-01T12:40:29;819.70;742.40
55365;DHT22;41245;45.384;20.390;2022-08-01T12:43:00;819.70;563.20
55365;DHT22;41245;45.384;20.390;2022-08-01T12:45:30;819.70;614.40
55365;DHT22;41245;45.384;20.390;2022-08-01T12:47:57;819.50;588.80
55365;DHT22;41245;45.384;20.390;2022-08-01T12:50:27;794.50;537.60
55365;DHT22;41245;45.384;20.390;2022-08-01T12:52:57;819.20;640.00
55365;DHT22;41245;45.384;20.390;2022-08-01T12:55:24;819.30;512.00
55365;DHT22;41245;45.384;20.390;2022-08-01T13:00:30;819.50;665.60
55365;DHT22;41245;45.384;20.390;2022-08-01T13:03:05;819.20;512.00
55365;DHT22;41245;45.384;20.390;2022-08-01T13:05:48;819.30;665.60
55365;DHT22;41245;45.384;20.390;2022-08-01T13:08:21;819.50;640.00
55365;DHT22;41245;45.384;20.390;2022-08-01T13:10:48;819.70;665.60
55365;DHT22;41245;45.384;20.390;2022-08-01T13:13:14;819.70;768.00
55365;DHT22;41245;45.384;20.390;2022-08-01T13:15:42;820.00;819.20
55365;DHT22;41245;45.384;20.390;2022-08-01T13:18:29;844.80;844.80
55365;DHT22;41245;45.384;20.390;2022-08-01T13:21:18;820.10;768.00
55365;DHT22;41245;45.384;20.390;2022-08-01T13:24:04;844.80;844.80
55365;DHT22;41245;45.384;20.390;2022-08-01T13:26:45;845.10;691.20
55365;DHT22;41245;45.384;20.390;2022-08-01T13:29:28;845.30;793.60
55365;DHT22;41245;45.384;20.390;2022-08-01T13:31:54;845.30;665.60
55365;DHT22;41245;45.384;20.390;2022-08-01T13:34:32;845.10;691.20
55365;DHT22;41245;45.384;20.390;2022-08-01T13:36:59;845.10;691.20
55365;DHT22;41245;45.384;20.390;2022-08-01T13:39:28;845.10;716.80
55365;DHT22;41245;45.384;20.390;2022-08-01T13:42:07;845.10;716.80
55365;DHT22;41245;45.384;20.390;2022-08-01T13:44:33;845.10;819.20
55365;DHT22;41245;45.384;20.390;2022-08-01T13:46:59;845.10;768.00
55365;DHT22;41245;45.384;20.390;2022-08-01T13:49:25;845.10;793.60
55365;DHT22;41245;45.384;20.390;2022-08-01T13:51:50;844.90;793.60
55365;DHT22;41245;45.384;20.390;2022-08-01T13:54:17;844.90;870.40
55365;DHT22;41245;45.384;20.390;2022-08-01T13:56:43;845.00;256.00
55365;DHT22;41245;45.384;20.390;2022-08-01T13:59:08;845.10;256.00
55365;DHT22;41245;45.384;20.390;2022-08-01T14:01:35;845.10;256.00
55365;DHT22;41245;45.384;20.390;2022-08-01T14:04:02;845.60;256.00
55365;DHT22;41245;45.384;20.390;2022-08-01T14:06:28;870.60;256.00
55365;DHT22;41245;45.384;20.390;2022-08-01T14:11:20;870.60;256.00
55365;DHT22;41245;45.384;20.390;2022-08-01T14:13:46;845.70;256.00
55365;DHT22;41245;45.384;20.390;2022-08-01T14:16:12;845.60;256.00
55365;DHT22;41245;45.384;20.390;2022-08-01T14:18:38;845.40;256.00
55365;DHT22;41245;45.384;20.390;2022-08-01T14:21:03;845.30;256.00
55365;DHT22;41245;45.384;20.390;2022-08-01T14:23:29;845.10;256.00
55365;DHT22;41245;45.384;20.390;2022-08-01T14:25:55;845.00;256.00
55365;DHT22;41245;45.384;20.390;2022-08-01T14:28:21;845.10;256.00
55365;DHT22;41245;45.384;20.390;2022-08-01T14:30:47;845.10;256.00
55365;DHT22;41245;45.384;20.390;2022-08-01T15:36:48;819.60;230.40
55365;DHT22;41245;45.384;20.390;2022-08-01T15:39:13;819.40;230.40
55365;DHT22;41245;45.384;20.390;2022-08-01T15:41:40;819.30;230.40
55365;DHT22;41245;45.384;20.390;2022-08-01T15:44:06;819.30;230.40
55365;DHT22;41245;45.384;20.390;2022-08-01T15:58:49;819.20;230.40
55365;DHT22;41245;45.384;20.390;2022-08-01T16:01:15;794.40;742.40
55365;DHT22;41245;45.384;20.390;2022-08-01T16:03:41;794.40;768.00
55365;DHT22;41245;45.384;20.390;2022-08-01T16:06:07;794.30;793.60
55365;DHT22;41245;45.384;20.390;2022-08-01T16:08:33;794.30;742.40
55365;DHT22;41245;45.384;20.390;2022-08-01T16:10:59;794.30;768.00
55365;DHT22;41245;45.384;20.390;2022-08-01T16:13:25;794.20;819.20
55365;DHT22;41245;45.384;20.390;2022-08-01T16:15:51;794.20;844.80
55365;DHT22;41245;45.384;20.390;2022-08-01T16:18:18;794.10;844.80
55365;DHT22;41245;45.384;20.390;2022-08-01T16:20:44;794.10;716.80
55365;DHT22;41245;45.384;20.390;2022-08-01T16:23:10;794.00;768.00
55365;DHT22;41245;45.384;20.390;2022-08-01T16:25:35;794.00;844.80
55365;DHT22;41245;45.384;20.390;2022-08-01T16:28:02;794.00;793.60
55365;DHT22;41245;45.384;20.390;2022-08-01T16:30:28;793.90;793.60
55365;DHT22;41245;45.384;20.390;2022-08-01T16:32:54;793.90;768.00
55365;DHT22;41245;45.384;20.390;2022-08-01T16:35:20;794.00;665.60
55365;DHT22;41245;45.384;20.390;2022-08-01T16:37:46;794.00;768.00
55365;DHT22;41245;45.384;20.390;2022-08-01T16:40:12;793.90;716.80
55365;DHT22;41245;45.384;20.390;2022-08-01T16:42:37;793.90;768.00
55365;DHT22;41245;45.384;20.390;2022-08-01T16:45:04;793.90;793.60
55365;DHT22;41245;45.384;20.390;2022-08-01T16:47:29;793.90;742.40
55365;DHT22;41245;45.384;20.390;2022-08-01T16:49:55;793.60;691.20
55365;DHT22;41245;45.384;20.390;2022-08-01T16:52:21;793.60;691.20
55365;DHT22;41245;45.384;20.390;2022-08-01T16:54:47;768.90;640.00
55365;DHT22;41245;45.384;20.390;2022-08-01T16:57:13;768.70;716.80
55365;DHT22;41245;45.384;20.390;2022-08-01T16:59:38;768.60;691.20
55365;DHT22;41245;45.384;20.390;2022-08-01T17:02:04;768.50;716.80
55365;DHT22;41245;45.384;20.390;2022-08-01T17:04:31;768.50;691.20
55365;DHT22;41245;45.384;20.390;2022-08-01T17:06:57;768.50;716.80
55365;DHT22;41245;45.384;20.390;2022-08-01T17:09:23;768.50;768.00
55365;DHT22;41245;45.384;20.390;2022-08-01T17:11:49;768.30;768.00
55365;DHT22;41245;45.384;20.390;2022-08-01T17:14:15;768.30;742.40